Flight Track Log - Related Links

Times and Time Zones

All times are in EDT time to prevent confusion due to time zone crossing. See the N960DL flight status page for this flight to view local times or setup timezone preferences in your user account.

Time Position Orientation Groundspeed Altitude Reporting Facility
EDT Latitude Longitude Course Direction KTS MPH feet Rate Location/Type
Sun 02:23:29 PM 33.6478 -84.3756 340° North 436 502 2,500  Level Atlanta Center
Sun 02:24:29 PM 33.6625 -84.2933 78° East 328 377 5,200 2,500 Climbing Atlanta Center
Sun 02:25:00 PM 33.8397 -84.1731 320° Northwest  Level FlightAware Approximate
Sun 02:25:29 PM 33.6836 -84.2111 73° East 272 313 7,500  Level Atlanta Center
Sun 02:26:00 PM 33.9357 -84.2677 339° North  Level FlightAware Approximate
Sun 02:26:29 PM 33.7669 -84.1986 North 306 352 9,900  Level Atlanta Center
Sun 02:27:00 PM 34.0518 -84.3205 339° North  Level FlightAware Approximate
Sun 02:27:29 PM 33.8650 -84.2414 340° North 380 437 10,100  Level Atlanta Center
Sun 02:28:00 PM 34.1691 -84.3659 340° North  Level FlightAware Approximate
Sun 02:28:34 PM 33.9667 -84.2833 341° North 393 452 12,600  Level Atlanta TRACON
Sun 02:30:29 PM 34.1758 -84.3678 342° North 433 498 14,800 1,749 Climbing Atlanta Center
Sun 02:31:29 PM 34.2819 -84.4133 340° North 420 483 17,700 2,300 Climbing Atlanta Center
Sun 02:32:29 PM 34.4031 -84.4214 357° North 413 475 19,400 1,850 Climbing Atlanta Center
Sun 02:33:29 PM 34.5283 -84.4144 North 435 501 21,400 1,750 Climbing Atlanta Center
Sun 02:34:29 PM 34.6556 -84.4125 North 451 519 22,900 2,200 Climbing Atlanta Center
Sun 02:35:29 PM 34.7850 -84.4106 North 459 528 25,800 2,300 Climbing Atlanta Center
Sun 02:36:29 PM 34.9122 -84.4061 North 459 528 27,500 1,200 Climbing Atlanta Center
Sun 02:37:29 PM 35.0397 -84.4067 360° North 459 528 28,200 1,150 Climbing Atlanta Center
Sun 02:38:29 PM 35.1753 -84.4022 North 470 541 29,800 1,500 Climbing Atlanta Center
Sun 02:39:29 PM 35.3108 -84.3978 North 475 547 31,200 1,400 Climbing Atlanta Center
Sun 02:40:29 PM 35.4444 -84.3931 North 480 552 32,600 1,150 Climbing Atlanta Center
Sun 02:41:29 PM 35.5781 -84.3911 North 480 552 33,500 700 Climbing Atlanta Center
Sun 02:42:29 PM 35.7114 -84.3867 North 475 547 34,000 250 Climbing Atlanta Center
Sun 02:43:29 PM 35.8325 -84.3844 North 480 552 34,000  Level Atlanta Center
Sun 02:46:01 PM 36.1792 -84.3747 North 475 547 34,000  Level Indianapolis Center
Sun 02:47:03 PM 36.3111 -84.3728 North 477 549 34,000  Level Indianapolis Center
Sun 02:48:05 PM 36.4419 -84.3703 North 472 543 34,000  Level Indianapolis Center
Sun 02:49:07 PM 36.5822 -84.3664 North 473 544 34,000  Level Indianapolis Center
Sun 02:50:09 PM 36.7156 -84.3639 North 476 548 34,000  Level Indianapolis Center
Sun 02:51:11 PM 36.8464 -84.3606 North 470 541 34,000 -97 Level Indianapolis Center
Sun 02:52:13 PM 36.9997 -84.3569 North 468 539 33,800 -774 Descending Indianapolis Center
Sun 02:53:15 PM 37.1289 -84.3522 North 463 533 32,400 -871 Descending Indianapolis Center
Sun 02:54:17 PM 37.2589 -84.3497 North 462 532 32,000 -194 Descending Indianapolis Center
Sun 02:55:19 PM 37.3892 -84.3478 North 465 535 32,000  Level Indianapolis Center
Sun 02:56:21 PM 37.5194 -84.3453 North 465 535 32,000  Level Indianapolis Center
Sun 02:57:23 PM 37.6492 -84.3411 North 464 534 32,000  Level Indianapolis Center
Sun 02:58:25 PM 37.8008 -84.3369 North 465 535 32,000 -532 Level Indianapolis Center
Sun 02:59:27 PM 37.9300 -84.3333 North 463 533 30,900 -1,694 Descending Indianapolis Center
Sun 03:00:29 PM 38.0567 -84.3300 North 453 521 28,500 -2,371 Descending Indianapolis Center
Sun 03:01:31 PM 38.1836 -84.3256 North 454 522 26,000 -2,129 Descending Indianapolis Center
Sun 03:02:33 PM 38.3056 -84.3222 North 441 507 24,100 -1,210 Descending Indianapolis Center
Sun 03:03:35 PM 38.4219 -84.3197 North 420 483 23,500 -1,984 Descending Indianapolis Center
Sun 03:04:37 PM 38.5558 -84.3147 North 412 474 20,000 -2,592 Descending Indianapolis Center
Sun 03:05:40 PM 38.6581 -84.3150 360° North 414 476 18,100 -2,160 Descending Indianapolis Center
Sun 03:06:42 PM 38.7656 -84.3592 342° North 402 463 15,500 -2,578 Descending Indianapolis Center
Sun 03:07:48 PM 38.8833 -84.4167 339° North 380 437 12,600 -2,400 Descending Cincinnati TRACON
Sun 03:08:47 PM 38.9833 -84.4500 345° North 372 428 10,500 -857 Descending Cincinnati TRACON
Sun 03:10:50 PM 39.1789 -84.5447 339° North 370 426 10,000 -157 Descending Indianapolis Center
Sun 03:11:58 PM 39.2872 -84.4953 19° North 370 426 10,000  Level Indianapolis Center
Sun 03:12:54 PM 39.3592 -84.4314 34° Northeast 367 422 10,000  Level Indianapolis Center
Sun 03:13:56 PM 39.4458 -84.3622 32° Northeast 364 419 10,000  Level Indianapolis Center
Sun 03:14:58 PM 39.5206 -84.3136 27° Northeast 317 365 10,000 -290 Level Indianapolis Center
Sun 03:16:00 PM 39.6119 -84.3094 North 293 337 9,400 -919 Descending Indianapolis Center
Sun 03:17:02 PM 39.6897 -84.3156 357° North 285 328 8,100 -1,403 Descending Indianapolis Center
Sun 03:18:04 PM 39.7569 -84.3203 357° North 265 305 6,500 -1,548 Descending Indianapolis Center

Login

Don't have an account? Register now (free) for customized features, flight alerts, and more!